sensor_id;sensor_type;location;lat;lon;timestamp;pressure;altitude;pressure_sealevel;temperature;humidity
22241;BME280;11289;52.524;13.694;2023-05-23T00:01:00;100584.25;;;18.24;46.78
22241;BME280;11289;52.524;13.694;2023-05-23T00:03:26;100591.88;;;18.24;47.21
22241;BME280;11289;52.524;13.694;2023-05-23T00:05:53;100597.06;;;18.18;47.26
22241;BME280;11289;52.524;13.694;2023-05-23T00:08:21;100579.72;;;18.13;46.92
22241;BME280;11289;52.524;13.694;2023-05-23T00:10:47;100580.81;;;18.04;47.68
22241;BME280;11289;52.524;13.694;2023-05-23T00:13:13;100562.25;;;17.96;47.58
22241;BME280;11289;52.524;13.694;2023-05-23T00:15:42;100564.59;;;17.90;47.33
22241;BME280;11289;52.524;13.694;2023-05-23T00:18:14;100556.88;;;17.84;47.79
22241;BME280;11289;52.524;13.694;2023-05-23T00:20:42;100573.47;;;17.92;48.07
22241;BME280;11289;52.524;13.694;2023-05-23T00:23:09;100566.22;;;17.91;47.91
22241;BME280;11289;52.524;13.694;2023-05-23T00:25:36;100559.72;;;17.87;47.82
22241;BME280;11289;52.524;13.694;2023-05-23T00:28:03;100564.91;;;17.85;48.56
22241;BME280;11289;52.524;13.694;2023-05-23T00:30:29;100566.06;;;17.81;48.18
22241;BME280;11289;52.524;13.694;2023-05-23T00:32:56;100565.25;;;17.80;48.93
22241;BME280;11289;52.524;13.694;2023-05-23T00:35:22;100568.41;;;17.75;48.94
22241;BME280;11289;52.524;13.694;2023-05-23T00:37:51;100564.38;;;17.76;48.58
22241;BME280;11289;52.524;13.694;2023-05-23T00:40:17;100563.56;;;17.72;48.17
22241;BME280;11289;52.524;13.694;2023-05-23T00:42:44;100546.50;;;17.57;48.01
22241;BME280;11289;52.524;13.694;2023-05-23T00:45:10;100553.78;;;17.62;47.99
22241;BME280;11289;52.524;13.694;2023-05-23T00:47:40;100557.75;;;17.57;48.00
22241;BME280;11289;52.524;13.694;2023-05-23T00:50:14;100557.66;;;17.50;48.26
22241;BME280;11289;52.524;13.694;2023-05-23T00:52:44;100568.88;;;17.50;48.47
22241;BME280;11289;52.524;13.694;2023-05-23T00:55:12;100560.81;;;17.49;48.62
22241;BME280;11289;52.524;13.694;2023-05-23T00:57:38;100572.09;;;17.52;48.64
22241;BME280;11289;52.524;13.694;2023-05-23T01:00:10;100559.63;;;17.50;49.00
22241;BME280;11289;52.524;13.694;2023-05-23T01:02:40;100548.25;;;17.39;49.27
22241;BME280;11289;52.524;13.694;2023-05-23T01:05:09;100555.97;;;17.46;49.33
22241;BME280;11289;52.524;13.694;2023-05-23T01:07:36;100551.06;;;17.39;49.28
22241;BME280;11289;52.524;13.694;2023-05-23T01:10:03;100544.22;;;17.36;48.99
22241;BME280;11289;52.524;13.694;2023-05-23T01:12:44;100543.81;;;17.38;49.04
22241;BME280;11289;52.524;13.694;2023-05-23T01:15:14;100543.34;;;17.32;49.03
22241;BME280;11289;52.524;13.694;2023-05-23T01:18:07;100534.91;;;17.32;49.20
22241;BME280;11289;52.524;13.694;2023-05-23T01:20:42;100537.72;;;17.32;48.97
22241;BME280;11289;52.524;13.694;2023-05-23T01:28:57;100519.56;;;17.22;48.58
22241;BME280;11289;52.524;13.694;2023-05-23T01:31:31;100521.25;;;17.27;48.54
22241;BME280;11289;52.524;13.694;2023-05-23T01:34:00;100520.41;;;17.27;48.14
22241;BME280;11289;52.524;13.694;2023-05-23T01:36:27;100499.47;;;17.17;48.50
22241;BME280;11289;52.524;13.694;2023-05-23T01:38:53;100488.66;;;17.19;48.24
22241;BME280;11289;52.524;13.694;2023-05-23T01:41:19;100489.91;;;17.21;48.06
22241;BME280;11289;52.524;13.694;2023-05-23T01:43:45;100504.13;;;17.36;47.91
22241;BME280;11289;52.524;13.694;2023-05-23T01:46:12;100481.06;;;17.19;47.82
22241;BME280;11289;52.524;13.694;2023-05-23T01:48:39;100505.38;;;17.38;47.62
22241;BME280;11289;52.524;13.694;2023-05-23T01:51:05;100505.00;;;17.40;47.86
22241;BME280;11289;52.524;13.694;2023-05-23T01:53:31;100504.59;;;17.42;47.70
22241;BME280;11289;52.524;13.694;2023-05-23T01:55:58;100503.03;;;17.44;47.73
22241;BME280;11289;52.524;13.694;2023-05-23T01:58:28;100515.09;;;17.48;47.54
22241;BME280;11289;52.524;13.694;2023-05-23T02:00:55;100480.03;;;17.31;47.72
22241;BME280;11289;52.524;13.694;2023-05-23T02:03:21;100477.25;;;17.35;47.73
22241;BME280;11289;52.524;13.694;2023-05-23T02:05:47;100470.88;;;17.38;47.74
22241;BME280;11289;52.524;13.694;2023-05-23T02:08:13;100497.94;;;17.53;47.73
22241;BME280;11289;52.524;13.694;2023-05-23T02:10:39;100489.06;;;17.51;47.75
22241;BME280;11289;52.524;13.694;2023-05-23T02:13:05;100485.84;;;17.49;47.92
22241;BME280;11289;52.524;13.694;2023-05-23T02:15:31;100482.25;;;17.49;47.77
22241;BME280;11289;52.524;13.694;2023-05-23T02:17:57;100481.38;;;17.45;48.16
22241;BME280;11289;52.524;13.694;2023-05-23T02:20:23;100484.19;;;17.45;48.40
22241;BME280;11289;52.524;13.694;2023-05-23T02:22:49;100487.78;;;17.42;48.54
22241;BME280;11289;52.524;13.694;2023-05-23T02:25:15;100478.53;;;17.41;48.55
22241;BME280;11289;52.524;13.694;2023-05-23T02:27:41;100482.56;;;17.44;48.32
22241;BME280;11289;52.524;13.694;2023-05-23T02:30:07;100476.00;;;17.32;48.59
22241;BME280;11289;52.524;13.694;2023-05-23T02:32:33;100483.31;;;17.37;48.77
22241;BME280;11289;52.524;13.694;2023-05-23T02:34:59;100485.28;;;17.36;48.80
22241;BME280;11289;52.524;13.694;2023-05-23T02:37:26;100481.34;;;17.41;48.86
22241;BME280;11289;52.524;13.694;2023-05-23T02:39:53;100487.78;;;17.42;48.67
22241;BME280;11289;52.524;13.694;2023-05-23T02:42:27;100475.72;;;17.41;48.63
22241;BME280;11289;52.524;13.694;2023-05-23T02:44:53;100472.13;;;17.40;49.14
22241;BME280;11289;52.524;13.694;2023-05-23T02:47:19;100479.72;;;17.40;49.07
22241;BME280;11289;52.524;13.694;2023-05-23T02:49:45;100474.88;;;17.37;49.12
22241;BME280;11289;52.524;13.694;2023-05-23T02:52:11;100478.88;;;17.36;49.25
22241;BME280;11289;52.524;13.694;2023-05-23T02:54:37;100481.22;;;17.34;49.21
22241;BME280;11289;52.524;13.694;2023-05-23T02:57:03;100480.81;;;17.32;49.55
22241;BME280;11289;52.524;13.694;2023-05-23T02:59:29;100480.34;;;17.26;49.85
22241;BME280;11289;52.524;13.694;2023-05-23T03:01:56;100485.56;;;17.28;49.75
22241;BME280;11289;52.524;13.694;2023-05-23T03:04:21;100490.78;;;17.29;50.18
22241;BME280;11289;52.524;13.694;2023-05-23T03:06:47;100492.00;;;17.28;49.68
22241;BME280;11289;52.524;13.694;2023-05-23T03:09:14;100490.00;;;17.29;49.85
22241;BME280;11289;52.524;13.694;2023-05-23T03:11:43;100482.75;;;17.28;50.14
22241;BME280;11289;52.524;13.694;2023-05-23T03:14:09;100477.97;;;17.28;50.32
22241;BME280;11289;52.524;13.694;2023-05-23T03:16:35;100472.69;;;17.23;50.42
22241;BME280;11289;52.524;13.694;2023-05-23T03:19:04;100472.69;;;17.23;50.33
22241;BME280;11289;52.524;13.694;2023-05-23T03:21:42;100479.97;;;17.28;50.25
22241;BME280;11289;52.524;13.694;2023-05-23T03:24:09;100475.91;;;17.25;50.22
22241;BME280;11289;52.524;13.694;2023-05-23T03:26:35;100462.72;;;17.26;50.29
22241;BME280;11289;52.524;13.694;2023-05-23T03:29:01;100469.88;;;17.23;50.26
22241;BME280;11289;52.524;13.694;2023-05-23T03:31:27;100455.84;;;17.23;50.55
22241;BME280;11289;52.524;13.694;2023-05-23T03:33:53;100469.19;;;17.30;50.48
22241;BME280;11289;52.524;13.694;2023-05-23T03:36:19;100472.00;;;17.30;51.19
22241;BME280;11289;52.524;13.694;2023-05-23T03:38:46;100464.28;;;17.23;51.21
22241;BME280;11289;52.524;13.694;2023-05-23T03:41:12;100476.72;;;17.26;51.04
22241;BME280;11289;52.524;13.694;2023-05-23T03:43:38;100482.28;;;17.22;51.75
22241;BME280;11289;52.524;13.694;2023-05-23T03:46:04;100471.03;;;17.18;52.87
22241;BME280;11289;52.524;13.694;2023-05-23T03:48:30;100471.72;;;17.12;52.55
22241;BME280;11289;52.524;13.694;2023-05-23T03:50:56;100479.34;;;17.11;52.49
22241;BME280;11289;52.524;13.694;2023-05-23T03:53:22;100476.09;;;17.09;52.74
22241;BME280;11289;52.524;13.694;2023-05-23T03:55:48;100470.38;;;17.02;53.14
22241;BME280;11289;52.524;13.694;2023-05-23T03:58:14;100463.16;;;17.01;53.15
22241;BME280;11289;52.524;13.694;2023-05-23T04:00:40;100463.22;;;17.04;52.35
22241;BME280;11289;52.524;13.694;2023-05-23T04:03:06;100445.47;;;16.97;52.67
22241;BME280;11289;52.524;13.694;2023-05-23T04:05:33;100457.56;;;17.01;52.81
22241;BME280;11289;52.524;13.694;2023-05-23T04:07:59;100447.91;;;16.98;53.60
22241;BME280;11289;52.524;13.694;2023-05-23T04:10:25;100452.28;;;16.96;54.03
22241;BME280;11289;52.524;13.694;2023-05-23T04:12:52;100461.53;;;17.00;54.33
22241;BME280;11289;52.524;13.694;2023-05-23T04:15:18;100452.72;;;16.98;54.11
22241;BME280;11289;52.524;13.694;2023-05-23T04:17:46;100453.81;;;16.93;54.18
22241;BME280;11289;52.524;13.694;2023-05-23T04:20:12;100450.66;;;16.95;53.92
22241;BME280;11289;52.524;13.694;2023-05-23T04:22:38;100462.31;;;16.97;54.26
22241;BME280;11289;52.524;13.694;2023-05-23T04:25:04;100454.28;;;16.95;54.39
22241;BME280;11289;52.524;13.694;2023-05-23T04:27:31;100445.78;;;16.92;54.13
22241;BME280;11289;52.524;13.694;2023-05-23T04:29:57;100455.53;;;16.98;53.68
22241;BME280;11289;52.524;13.694;2023-05-23T04:32:25;100464.72;;;16.98;54.26
22241;BME280;11289;52.524;13.694;2023-05-23T04:34:51;100469.53;;;16.98;54.49
22241;BME280;11289;52.524;13.694;2023-05-23T04:37:18;100474.38;;;17.01;53.83
22241;BME280;11289;52.524;13.694;2023-05-23T04:39:47;100479.22;;;17.04;53.94
22241;BME280;11289;52.524;13.694;2023-05-23T04:42:13;100475.25;;;17.05;53.93
22241;BME280;11289;52.524;13.694;2023-05-23T04:44:39;100476.84;;;17.06;54.52
22241;BME280;11289;52.524;13.694;2023-05-23T04:47:06;100477.22;;;17.04;55.10
22241;BME280;11289;52.524;13.694;2023-05-23T04:49:35;100470.03;;;17.03;54.06
22241;BME280;11289;52.524;13.694;2023-05-23T04:52:01;100465.97;;;17.01;54.00
22241;BME280;11289;52.524;13.694;2023-05-23T04:54:27;100461.97;;;17.02;53.37
22241;BME280;11289;52.524;13.694;2023-05-23T04:56:53;100456.41;;;17.05;53.42
22241;BME280;11289;52.524;13.694;2023-05-23T04:59:19;100450.84;;;17.09;53.42
22241;BME280;11289;52.524;13.694;2023-05-23T05:01:45;100456.94;;;17.15;53.44
22241;BME280;11289;52.524;13.694;2023-05-23T05:04:11;100457.22;;;17.06;53.75
22241;BME280;11289;52.524;13.694;2023-05-23T05:06:37;100455.19;;;17.03;53.42
22241;BME280;11289;52.524;13.694;2023-05-23T05:09:03;100455.25;;;17.07;52.98
22241;BME280;11289;52.524;13.694;2023-05-23T05:11:29;100452.06;;;17.08;53.30
22241;BME280;11289;52.524;13.694;2023-05-23T05:13:55;100448.81;;;17.06;53.36
22241;BME280;11289;52.524;13.694;2023-05-23T05:16:21;100449.25;;;17.08;53.27
22241;BME280;11289;52.524;13.694;2023-05-23T05:18:47;100447.72;;;17.14;53.83
22241;BME280;11289;52.524;13.694;2023-05-23T05:21:13;100441.63;;;17.09;53.05
22241;BME280;11289;52.524;13.694;2023-05-23T05:23:39;100450.06;;;17.09;53.02
22241;BME280;11289;52.524;13.694;2023-05-23T05:26:05;100451.28;;;17.11;53.32
22241;BME280;11289;52.524;13.694;2023-05-23T05:28:31;100445.19;;;17.05;54.40
22241;BME280;11289;52.524;13.694;2023-05-23T05:30:57;100450.13;;;17.12;55.23
22241;BME280;11289;52.524;13.694;2023-05-23T05:33:23;100437.59;;;17.06;55.29
22241;BME280;11289;52.524;13.694;2023-05-23T05:35:50;100446.09;;;17.13;56.12
22241;BME280;11289;52.524;13.694;2023-05-23T05:38:16;100441.69;;;17.12;56.11
22241;BME280;11289;52.524;13.694;2023-05-23T05:40:42;100432.47;;;17.12;56.43
22241;BME280;11289;52.524;13.694;2023-05-23T05:43:08;100444.97;;;17.18;57.22
22241;BME280;11289;52.524;13.694;2023-05-23T05:45:35;100446.53;;;17.15;59.25
22241;BME280;11289;52.524;13.694;2023-05-23T05:48:01;100448.09;;;17.13;59.37
22241;BME280;11289;52.524;13.694;2023-05-23T05:50:27;100455.38;;;17.17;59.62
22241;BME280;11289;52.524;13.694;2023-05-23T05:52:53;100459.75;;;17.15;60.31
22241;BME280;11289;52.524;13.694;2023-05-23T05:55:19;100462.50;;;17.11;60.42
22241;BME280;11289;52.524;13.694;2023-05-23T05:57:45;100469.19;;;17.03;60.87
22241;BME280;11289;52.524;13.694;2023-05-23T06:00:12;100471.47;;;16.94;62.41
22241;BME280;11289;52.524;13.694;2023-05-23T06:02:44;100487.91;;;16.95;62.92
22241;BME280;11289;52.524;13.694;2023-05-23T06:05:16;100494.28;;;16.92;63.34
22241;BME280;11289;52.524;13.694;2023-05-23T06:07:42;100485.28;;;16.83;64.42
22241;BME280;11289;52.524;13.694;2023-05-23T06:10:08;100483.31;;;16.83;64.57
22241;BME280;11289;52.524;13.694;2023-05-23T06:12:37;100479.69;;;16.83;64.43
22241;BME280;11289;52.524;13.694;2023-05-23T06:15:05;100479.69;;;16.83;64.05
22241;BME280;11289;52.524;13.694;2023-05-23T06:17:31;100476.50;;;16.84;64.11
22241;BME280;11289;52.524;13.694;2023-05-23T06:19:57;100486.03;;;16.80;64.42
22241;BME280;11289;52.524;13.694;2023-05-23T06:22:23;100466.31;;;16.73;62.73
22241;BME280;11289;52.524;13.694;2023-05-23T06:24:49;100467.50;;;16.71;63.59
22241;BME280;11289;52.524;13.694;2023-05-23T06:27:15;100460.97;;;16.64;62.62
22241;BME280;11289;52.524;13.694;2023-05-23T06:29:41;100458.88;;;16.57;62.78
22241;BME280;11289;52.524;13.694;2023-05-23T06:32:07;100463.16;;;16.51;64.38
22241;BME280;11289;52.524;13.694;2023-05-23T06:34:32;100451.91;;;16.47;63.52
22241;BME280;11289;52.524;13.694;2023-05-23T06:36:58;100453.53;;;16.48;64.08
22241;BME280;11289;52.524;13.694;2023-05-23T06:39:24;100456.00;;;16.53;64.15
22241;BME280;11289;52.524;13.694;2023-05-23T06:41:50;100452.44;;;16.57;64.14
22241;BME280;11289;52.524;13.694;2023-05-23T06:44:16;100460.94;;;16.60;64.67
22241;BME280;11289;52.524;13.694;2023-05-23T06:46:44;100459.41;;;16.66;65.31
22241;BME280;11289;52.524;13.694;2023-05-23T06:49:11;100466.31;;;16.73;65.09
22241;BME280;11289;52.524;13.694;2023-05-23T06:51:37;100472.41;;;16.78;64.32
22241;BME280;11289;52.524;13.694;2023-05-23T06:54:03;100457.16;;;16.76;64.17
22241;BME280;11289;52.524;13.694;2023-05-23T06:56:29;100472.00;;;16.76;64.09
22241;BME280;11289;52.524;13.694;2023-05-23T06:58:55;100467.66;;;16.82;62.97
22241;BME280;11289;52.524;13.694;2023-05-23T07:01:21;100464.44;;;16.80;62.35
22241;BME280;11289;52.524;13.694;2023-05-23T07:03:47;100461.56;;;16.77;63.38
22241;BME280;11289;52.524;13.694;2023-05-23T07:06:13;100471.28;;;16.83;63.33
22241;BME280;11289;52.524;13.694;2023-05-23T07:08:39;100457.31;;;16.86;62.75
22241;BME280;11289;52.524;13.694;2023-05-23T07:11:05;100451.03;;;16.93;61.78
22241;BME280;11289;52.524;13.694;2023-05-23T07:13:31;100461.53;;;17.00;62.21
22241;BME280;11289;52.524;13.694;2023-05-23T07:15:58;100461.66;;;17.07;62.12
22241;BME280;11289;52.524;13.694;2023-05-23T07:18:24;100465.31;;;17.11;62.47
22241;BME280;11289;52.524;13.694;2023-05-23T07:20:50;100461.84;;;17.21;62.01
22241;BME280;11289;52.524;13.694;2023-05-23T07:23:16;100455.81;;;17.19;60.00
22241;BME280;11289;52.524;13.694;2023-05-23T07:25:42;100466.31;;;17.26;60.02
22241;BME280;11289;52.524;13.694;2023-05-23T07:28:09;100471.25;;;17.36;59.86
22241;BME280;11289;52.524;13.694;2023-05-23T07:30:35;100467.00;;;17.50;59.92
22241;BME280;11289;52.524;13.694;2023-05-23T07:33:01;100469.97;;;17.61;58.10
22241;BME280;11289;52.524;13.694;2023-05-23T07:35:27;100471.72;;;17.76;58.42
22241;BME280;11289;52.524;13.694;2023-05-23T07:37:53;100465.97;;;17.96;57.73
22241;BME280;11289;52.524;13.694;2023-05-23T07:40:20;100481.44;;;18.16;55.86
22241;BME280;11289;52.524;13.694;2023-05-23T07:42:47;100471.44;;;18.22;55.79
22241;BME280;11289;52.524;13.694;2023-05-23T07:45:13;100470.31;;;18.31;55.92
22241;BME280;11289;52.524;13.694;2023-05-23T07:47:39;100470.38;;;18.38;56.21
22241;BME280;11289;52.524;13.694;2023-05-23T07:50:06;100468.75;;;18.37;55.75
22241;BME280;11289;52.524;13.694;2023-05-23T07:52:32;100476.91;;;18.49;56.16
22241;BME280;11289;52.524;13.694;2023-05-23T07:54:58;100468.16;;;18.61;55.74
22241;BME280;11289;52.524;13.694;2023-05-23T07:57:25;100455.34;;;18.64;54.03
22241;BME280;11289;52.524;13.694;2023-05-23T07:59:52;100460.72;;;18.84;54.39
22241;BME280;11289;52.524;13.694;2023-05-23T08:02:19;100464.47;;;19.02;54.94
22241;BME280;11289;52.524;13.694;2023-05-23T08:04:46;100463.03;;;19.34;54.86
22241;BME280;11289;52.524;13.694;2023-05-23T08:07:12;100449.09;;;19.66;54.41
22241;BME280;11289;52.524;13.694;2023-05-23T08:09:38;100455.63;;;20.03;52.82
22241;BME280;11289;52.524;13.694;2023-05-23T08:12:06;100468.16;;;20.27;52.46
22241;BME280;11289;52.524;13.694;2023-05-23T08:14:32;100469.78;;;20.46;51.55
22241;BME280;11289;52.524;13.694;2023-05-23T08:16:58;100473.81;;;20.48;50.37
22241;BME280;11289;52.524;13.694;2023-05-23T08:19:24;100478.66;;;20.66;50.93
22241;BME280;11289;52.524;13.694;2023-05-23T08:21:50;100482.69;;;21.04;50.41
22241;BME280;11289;52.524;13.694;2023-05-23T08:24:18;100481.03;;;21.14;49.95
22241;BME280;11289;52.524;13.694;2023-05-23T08:26:45;100474.53;;;21.35;49.68
22241;BME280;11289;52.524;13.694;2023-05-23T08:29:11;100483.31;;;21.59;48.87
22241;BME280;11289;52.524;13.694;2023-05-23T08:31:37;100482.44;;;21.80;47.45
22241;BME280;11289;52.524;13.694;2023-05-23T08:34:03;100484.38;;;21.94;46.20
22241;BME280;11289;52.524;13.694;2023-05-23T08:36:29;100476.63;;;22.09;46.57
22241;BME280;11289;52.524;13.694;2023-05-23T08:38:56;100471.22;;;22.33;47.15
22241;BME280;11289;52.524;13.694;2023-05-23T08:41:23;100475.03;;;22.64;45.51
22241;BME280;11289;52.524;13.694;2023-05-23T08:43:49;100476.50;;;22.80;45.77
22241;BME280;11289;52.524;13.694;2023-05-23T08:46:15;100486.53;;;22.88;45.99
22241;BME280;11289;52.524;13.694;2023-05-23T08:48:42;100487.13;;;23.14;45.19
22241;BME280;11289;52.524;13.694;2023-05-23T08:51:12;100489.13;;;23.82;43.85
22241;BME280;11289;52.524;13.694;2023-05-23T08:53:41;100486.22;;;24.16;42.50
22241;BME280;11289;52.524;13.694;2023-05-23T08:56:11;100490.63;;;24.21;42.47
22241;BME280;11289;52.524;13.694;2023-05-23T08:58:38;100492.94;;;24.30;42.07
22241;BME280;11289;52.524;13.694;2023-05-23T09:01:07;100492.63;;;24.48;41.94
22241;BME280;11289;52.524;13.694;2023-05-23T09:03:35;100496.47;;;25.09;41.24
22241;BME280;11289;52.524;13.694;2023-05-23T09:06:05;100507.63;;;25.63;38.37
22241;BME280;11289;52.524;13.694;2023-05-23T09:08:31;100504.59;;;25.90;37.88
22241;BME280;11289;52.524;13.694;2023-05-23T09:10:57;100495.06;;;26.01;37.30
22241;BME280;11289;52.524;13.694;2023-05-23T09:13:23;100497.22;;;25.93;36.99
22241;BME280;11289;52.524;13.694;2023-05-23T09:16:09;100506.81;;;26.03;36.86
22241;BME280;11289;52.524;13.694;2023-05-23T09:18:36;100499.81;;;26.24;36.42
22241;BME280;11289;52.524;13.694;2023-05-23T09:21:03;100490.31;;;26.47;36.24
22241;BME280;11289;52.524;13.694;2023-05-23T09:23:30;100491.25;;;26.77;35.59
22241;BME280;11289;52.524;13.694;2023-05-23T09:26:01;100499.94;;;26.86;34.71
22241;BME280;11289;52.524;13.694;2023-05-23T09:28:27;100505.28;;;26.68;34.51
22241;BME280;11289;52.524;13.694;2023-05-23T09:30:57;100500.97;;;26.43;35.44
22241;BME280;11289;52.524;13.694;2023-05-23T09:33:48;100494.94;;;26.57;35.10
22241;BME280;11289;52.524;13.694;2023-05-23T09:36:15;100499.56;;;27.01;35.65
22241;BME280;11289;52.524;13.694;2023-05-23T09:38:45;100493.28;;;27.22;34.48
22241;BME280;11289;52.524;13.694;2023-05-23T09:41:11;100503.38;;;27.10;34.48
22241;BME280;11289;52.524;13.694;2023-05-23T09:43:58;100501.56;;;26.71;34.64
22241;BME280;11289;52.524;13.694;2023-05-23T09:46:27;100490.00;;;26.78;35.33
22241;BME280;11289;52.524;13.694;2023-05-23T09:48:55;100491.69;;;26.75;34.79
22241;BME280;11289;52.524;13.694;2023-05-23T09:51:22;100494.19;;;27.19;35.35
22241;BME280;11289;52.524;13.694;2023-05-23T09:53:49;100489.41;;;27.45;34.29
22241;BME280;11289;52.524;13.694;2023-05-23T09:56:15;100496.09;;;27.68;34.79
22241;BME280;11289;52.524;13.694;2023-05-23T09:58:49;100497.16;;;27.87;34.63
22241;BME280;11289;52.524;13.694;2023-05-23T10:01:15;100485.22;;;28.05;33.66
22241;BME280;11289;52.524;13.694;2023-05-23T10:03:49;100488.28;;;28.11;33.46
22241;BME280;11289;52.524;13.694;2023-05-23T10:06:30;100493.66;;;28.35;34.06
22241;BME280;11289;52.524;13.694;2023-05-23T10:09:04;100485.88;;;28.61;33.82
22241;BME280;11289;52.524;13.694;2023-05-23T10:14:01;100482.44;;;29.14;33.14
22241;BME280;11289;52.524;13.694;2023-05-23T10:16:43;100483.88;;;29.31;33.17
22241;BME280;11289;52.524;13.694;2023-05-23T10:19:21;100477.41;;;29.62;33.11
22241;BME280;11289;52.524;13.694;2023-05-23T10:21:59;100475.00;;;29.83;32.03
22241;BME280;11289;52.524;13.694;2023-05-23T10:24:25;100463.31;;;29.46;32.11
22241;BME280;11289;52.524;13.694;2023-05-23T10:26:52;100476.34;;;29.25;33.24
22241;BME280;11289;52.524;13.694;2023-05-23T10:29:21;100470.31;;;28.75;33.18
22241;BME280;11289;52.524;13.694;2023-05-23T10:31:49;100475.19;;;28.13;34.34
22241;BME280;11289;52.524;13.694;2023-05-23T10:36:54;100473.66;;;27.83;35.60
22241;BME280;11289;52.524;13.694;2023-05-23T10:39:51;100467.03;;;28.38;34.92
22241;BME280;11289;52.524;13.694;2023-05-23T10:43:04;100477.91;;;28.30;35.11
22241;BME280;11289;52.524;13.694;2023-05-23T10:45:42;100478.94;;;27.98;35.42
22241;BME280;11289;52.524;13.694;2023-05-23T10:48:21;100483.19;;;27.63;36.09
22241;BME280;11289;52.524;13.694;2023-05-23T10:51:09;100476.28;;;27.35;36.57
22241;BME280;11289;52.524;13.694;2023-05-23T10:53:43;100484.09;;;27.02;37.36
22241;BME280;11289;52.524;13.694;2023-05-23T10:56:21;100485.00;;;26.82;38.64
22241;BME280;11289;52.524;13.694;2023-05-23T10:58:55;100479.28;;;26.66;39.58
22241;BME280;11289;52.524;13.694;2023-05-23T11:01:22;100477.44;;;26.42;39.87
22241;BME280;11289;52.524;13.694;2023-05-23T11:03:51;100479.72;;;26.15;40.20
22241;BME280;11289;52.524;13.694;2023-05-23T11:06:42;100486.53;;;26.01;41.03
22241;BME280;11289;52.524;13.694;2023-05-23T11:09:18;100480.03;;;26.53;41.01
22241;BME280;11289;52.524;13.694;2023-05-23T11:12:02;100485.19;;;27.21;39.35
22241;BME280;11289;52.524;13.694;2023-05-23T11:16:57;100478.50;;;27.27;39.16
22241;BME280;11289;52.524;13.694;2023-05-23T11:19:27;100477.09;;;27.49;38.82
22241;BME280;11289;52.524;13.694;2023-05-23T11:22:00;100478.44;;;27.86;37.59
22241;BME280;11289;52.524;13.694;2023-05-23T11:24:49;100483.97;;;28.19;37.62
22241;BME280;11289;52.524;13.694;2023-05-23T11:27:16;100482.59;;;28.11;37.37
22241;BME280;11289;52.524;13.694;2023-05-23T11:29:55;100476.25;;;27.77;37.81
22241;BME280;11289;52.524;13.694;2023-05-23T11:32:22;100480.09;;;27.58;38.45
22241;BME280;11289;52.524;13.694;2023-05-23T11:34:48;100485.56;;;27.52;39.88
22241;BME280;11289;52.524;13.694;2023-05-23T11:37:14;100483.09;;;27.80;39.51
22241;BME280;11289;52.524;13.694;2023-05-23T11:39:42;100482.97;;;27.58;40.51
22241;BME280;11289;52.524;13.694;2023-05-23T11:42:08;100482.53;;;27.85;40.80
22241;BME280;11289;52.524;13.694;2023-05-23T11:44:34;100482.59;;;28.37;40.64
22241;BME280;11289;52.524;13.694;2023-05-23T11:47:04;100472.50;;;28.71;39.90
22241;BME280;11289;52.524;13.694;2023-05-23T11:49:34;100484.03;;;28.80;39.41
22241;BME280;11289;52.524;13.694;2023-05-23T11:52:01;100499.34;;;28.73;39.65
22241;BME280;11289;52.524;13.694;2023-05-23T11:54:27;100499.72;;;28.49;40.16
22241;BME280;11289;52.524;13.694;2023-05-23T11:56:54;100497.78;;;28.08;40.48
22241;BME280;11289;52.524;13.694;2023-05-23T11:59:22;100506.88;;;27.60;41.59
22241;BME280;11289;52.524;13.694;2023-05-23T12:01:51;100515.09;;;27.29;42.06
22241;BME280;11289;52.524;13.694;2023-05-23T12:04:17;100516.84;;;26.93;42.21
22241;BME280;11289;52.524;13.694;2023-05-23T12:06:47;100514.88;;;26.57;43.26
22241;BME280;11289;52.524;13.694;2023-05-23T12:09:14;100516.09;;;26.23;44.03
22241;BME280;11289;52.524;13.694;2023-05-23T12:11:42;100517.50;;;25.95;44.73
22241;BME280;11289;52.524;13.694;2023-05-23T12:14:13;100530.00;;;25.61;45.50
22241;BME280;11289;52.524;13.694;2023-05-23T12:16:42;100527.97;;;25.42;46.04
22241;BME280;11289;52.524;13.694;2023-05-23T12:19:09;100540.88;;;25.23;46.58
22241;BME280;11289;52.524;13.694;2023-05-23T12:21:48;100531.44;;;25.06;47.23
22241;BME280;11289;52.524;13.694;2023-05-23T12:24:18;100540.38;;;25.04;48.17
22241;BME280;11289;52.524;13.694;2023-05-23T12:26:52;100538.16;;;24.92;47.97
22241;BME280;11289;52.524;13.694;2023-05-23T12:29:28;100536.06;;;24.72;48.33
22241;BME280;11289;52.524;13.694;2023-05-23T12:31:57;100527.22;;;24.66;48.49
22241;BME280;11289;52.524;13.694;2023-05-23T12:34:23;100533.59;;;24.74;49.31
22241;BME280;11289;52.524;13.694;2023-05-23T12:36:53;100540.56;;;24.70;49.15
22241;BME280;11289;52.524;13.694;2023-05-23T12:39:29;100530.53;;;24.61;48.91
22241;BME280;11289;52.524;13.694;2023-05-23T12:42:06;100537.78;;;24.66;49.07
22241;BME280;11289;52.524;13.694;2023-05-23T12:44:33;100543.31;;;24.73;49.78
22241;BME280;11289;52.524;13.694;2023-05-23T12:46:59;100526.66;;;24.99;49.38
22241;BME280;11289;52.524;13.694;2023-05-23T12:49:25;100537.72;;;25.61;47.88
22241;BME280;11289;52.524;13.694;2023-05-23T12:51:51;100523.78;;;26.06;46.21
22241;BME280;11289;52.524;13.694;2023-05-23T12:54:17;100532.31;;;26.06;45.48
22241;BME280;11289;52.524;13.694;2023-05-23T12:56:43;100540.28;;;25.75;46.12
22241;BME280;11289;52.524;13.694;2023-05-23T12:59:09;100540.41;;;25.48;46.90